Kensen, Arkansas
Current Conditions -  °F | °C
As of 9:56 AM on Monday 24 Nov 2014 (Local Time) from KSRC Reporting Station
Clear Clear  
Wind Chill: 50°   Ceiling: Unl
Heat Index: 50°   Visibility: 10mi
Dew Point: 35°   Wind: 10mph
Humidity: 57%   Direction: 260°W
Pressure: 29.91"   Gusts: NA
Location:  35.2119°N, 91.6651°W
Report Text: KSRC 241556Z AUTO 26009KT 10SM CLR 10/02 A2991 RMK AO2 SLP133 T01000017 TSNO
Loading
Personal Weather Stations






























Interactive Weather Map New forecast layout! Learn more

10-Day Weather Forecast

Advertisements
Track Severe Weather on mobile